Bonita, CA (91908)

7:40 AM PDT on July 27, 2016 (GMT -0700)
Lower Surrey Drive | | Change Station

Elev 150 ft 32.65 °N, 117.04 °W | Updated 8 seconds ago

Clear
Clear
69.1 °F
Feels Like 69.1 °F
N
0.0
Wind Variable Wind from SW
Gusts 0.0 mph

Today
High -- | Low -- °F
--% Chance of Precip.
Yesterday
High -- | Low -- °F
Precip. -- in
Pressure 29.90 in
Visibility 8.0 miles
Clouds Clear
Dew Point 66 °F
Humidity 91%
Rainfall 0.00 in
Snow Depth Not available.
5:59 AM 7:49 PM
Last Quarter, 42% visible
METAR KSDM 271353Z AUTO 00000KT 8SM CLR 22/19 A2991 RMK AO2 SLP123 T02170194
Pressure 29.90 in
Visibility 8.0 miles
Clouds Clear
Dew Point 66 °F
Humidity 91%
Rainfall 0.00 in
Snow Depth Not available.
5:59 AM 7:49 PM
Last Quarter, 42% visible
METAR KSDM 271353Z AUTO 00000KT 8SM CLR 22/19 A2991 RMK AO2 SLP123 T02170194

10-Day Weather Forecast

Almanac

Astronomy

Jul. 27, 2016 Rise Set
Actual Time
Civil Twilight
Nautical Twilight
Astronomical Twilight
Moon
Length of Visible Light
Length of Day
Tomorrow will be .
, % of the Moon is Illuminated

Today's Extremes

State Highs State Lows

Community

WunderPhotos

Upload Photos

1,927,847 photos uploaded!

WunderBlog® & News

Nearby

Air Quality

  Air Quality AQ Index Pollutant
Not available.

Snow Depth

Station Depth Elevation

Earthquake Activity

City Distance Mag. Time & Date
Minimum magnitude displayed is 2.5.

Coastal Water Temperatures

Place Temperature

Stations

Nearby Weather Stations

Station Location Temp. Windchill Dew Point Humidity Wind Precip. Elev Updated Type
                   

Watches & Warnings

There are currently no watches in effect.